Terminal Aerodrome Forecast
Issued by NWS

Home | Current Version | Previous Version | Text Only | Print | Product List | Glossary On
Versions: 1 2 3 4 5 6 7 8 9 10 11 12 13 14 15 16 17 18 19 20 21
000
FTUS43 KGRR 211700
TAFBTL
TAF
KBTL 211740Z 2118/2218 19007KT P6SM BKN025
     FM212030 17005KT 5SM -SHRA BR VCTS OVC025CB
     FM212300 17005KT P6SM SCT060 BKN120
     FM220500 17005KT 2SM TSRA BR BKN020CB
     FM221200 17005KT P6SM SCT060 BKN120=

USA.gov is the U.S. government's official web portal to all federal, state and local government web resources and services.